Aviation Digital Data Service (ADDS)

Output produced by TAFs form (1131 UTC 19 January 2018)
found at http://www.aviationweather.gov/adds/tafs/
 
RJCH 191100Z 01004KT 9999 FEW030 SCT040 M03/M09 Q1019
TAF RJCH 191115Z 1912/2018 03004KT 9999 FEW020 SCT040 
     BECMG 1922/2000 19010KT 
     TEMPO 2000/2006 2000 -SHSN FEW005 BKN008 
     BECMG 2003/2006 30010KT